createdAt,value
2022-08-28T00:00:00.940Z,17.10
2022-08-28T00:02:28.520Z,17.10
2022-08-28T00:04:55.545Z,17.10
2022-08-28T00:07:22.529Z,17.00
2022-08-28T00:09:49.500Z,17.00
2022-08-28T00:12:16.456Z,17.00
2022-08-28T00:14:43.447Z,17.00
2022-08-28T00:17:10.377Z,17.00
2022-08-28T00:19:38.798Z,17.00
2022-08-28T00:22:07.549Z,17.00
2022-08-28T00:24:34.816Z,17.00
2022-08-28T00:27:20.370Z,17.00
2022-08-28T00:29:47.347Z,17.00
2022-08-28T00:32:14.337Z,17.00
2022-08-28T00:34:41.580Z,16.90
2022-08-28T00:37:08.510Z,16.90
2022-08-28T00:39:35.423Z,16.90
2022-08-28T00:42:02.381Z,16.90
2022-08-28T00:44:29.648Z,16.90
2022-08-28T00:46:59.030Z,16.90
2022-08-28T00:49:36.001Z,16.80
2022-08-28T00:52:08.599Z,16.80
2022-08-28T00:54:50.503Z,16.80
2022-08-28T00:57:35.675Z,16.80
2022-08-28T01:00:06.500Z,16.70
2022-08-28T01:02:33.548Z,16.60
2022-08-28T01:05:00.531Z,16.50
2022-08-28T01:07:27.555Z,16.50
2022-08-28T01:09:55.818Z,16.40
2022-08-28T01:12:28.590Z,16.30
2022-08-28T01:15:00.145Z,16.30
2022-08-28T01:17:31.425Z,16.20
2022-08-28T01:20:04.179Z,16.20
2022-08-28T01:22:38.678Z,16.20
2022-08-28T01:25:15.263Z,16.10
2022-08-28T01:27:43.327Z,16.10
2022-08-28T01:30:16.637Z,16.10
2022-08-28T01:32:47.541Z,16.00
2022-08-28T01:35:19.199Z,16.00
2022-08-28T01:37:47.581Z,16.00
2022-08-28T01:40:20.466Z,15.90
2022-08-28T01:42:48.153Z,15.90
2022-08-28T01:45:17.931Z,15.90
2022-08-28T01:47:45.893Z,15.90
2022-08-28T01:50:16.923Z,15.90
2022-08-28T01:52:44.293Z,15.90
2022-08-28T01:55:11.864Z,15.90
2022-08-28T01:57:51.668Z,15.90
2022-08-28T02:00:20.163Z,15.90
2022-08-28T02:02:50.249Z,15.80
2022-08-28T02:05:22.796Z,15.80
2022-08-28T02:07:50.455Z,15.80
2022-08-28T02:10:17.571Z,15.70
2022-08-28T02:12:44.514Z,15.70
2022-08-28T02:15:13.169Z,15.70
2022-08-28T02:17:40.174Z,15.60
2022-08-28T02:20:07.955Z,15.60
2022-08-28T02:22:36.523Z,15.60
2022-08-28T02:25:05.675Z,15.50
2022-08-28T02:27:32.680Z,15.40
2022-08-28T02:29:59.734Z,15.40
2022-08-28T02:32:27.660Z,15.30
2022-08-28T02:34:55.677Z,15.30
2022-08-28T02:37:24.442Z,15.30
2022-08-28T02:39:55.440Z,15.20
2022-08-28T02:42:22.871Z,15.20
2022-08-28T02:44:49.801Z,15.10
2022-08-28T02:47:17.044Z,15.10
2022-08-28T02:49:44.432Z,15.00
2022-08-28T02:52:12.060Z,15.00
2022-08-28T02:54:40.436Z,14.90
2022-08-28T02:57:08.768Z,14.90
2022-08-28T02:59:36.468Z,14.80
2022-08-28T03:02:04.788Z,14.80
2022-08-28T03:04:31.685Z,14.70
2022-08-28T03:06:59.350Z,14.70
2022-08-28T03:09:26.648Z,14.70
2022-08-28T03:11:55.073Z,14.60
2022-08-28T03:14:22.518Z,14.60
2022-08-28T03:16:49.512Z,14.60
2022-08-28T03:19:16.666Z,14.50
2022-08-28T03:21:43.644Z,14.50
2022-08-28T03:24:10.528Z,14.50
2022-08-28T03:26:41.998Z,14.50
2022-08-28T03:29:08.891Z,14.50
2022-08-28T03:31:36.293Z,14.50
2022-08-28T03:34:03.312Z,14.50
2022-08-28T03:36:30.336Z,14.50
2022-08-28T03:39:01.765Z,14.50
2022-08-28T03:41:30.997Z,14.50
2022-08-28T03:43:59.949Z,14.40
2022-08-28T03:46:28.434Z,14.40
2022-08-28T03:48:55.983Z,14.40
2022-08-28T03:51:29.242Z,14.40
2022-08-28T03:53:59.585Z,14.30
2022-08-28T03:56:28.826Z,14.20
2022-08-28T03:58:58.410Z,14.20
2022-08-28T04:01:25.966Z,14.20
2022-08-28T04:03:52.982Z,14.20
2022-08-28T04:06:20.079Z,14.20
2022-08-28T04:08:47.993Z,14.20
2022-08-28T04:11:14.921Z,14.20
2022-08-28T04:13:42.127Z,14.20
2022-08-28T04:16:12.160Z,14.20
2022-08-28T04:18:41.361Z,14.20
2022-08-28T04:21:11.306Z,14.20
2022-08-28T04:23:39.929Z,14.20
2022-08-28T04:26:08.334Z,14.20
2022-08-28T04:28:36.641Z,14.20
2022-08-28T04:31:03.583Z,14.20
2022-08-28T04:33:30.861Z,14.20
2022-08-28T04:36:08.074Z,14.30
2022-08-28T04:38:34.995Z,14.30
2022-08-28T04:41:09.982Z,14.30
2022-08-28T04:43:37.432Z,14.40
2022-08-28T04:46:11.479Z,14.40
2022-08-28T04:48:39.616Z,14.40
2022-08-28T04:51:09.423Z,14.40
2022-08-28T04:53:38.085Z,14.40
2022-08-28T04:56:08.289Z,14.40
2022-08-28T04:58:35.534Z,14.40
2022-08-28T05:01:15.292Z,14.40
2022-08-28T05:03:42.463Z,14.40
2022-08-28T05:06:09.610Z,14.50
2022-08-28T05:08:36.652Z,14.50
2022-08-28T05:11:27.287Z,14.60
2022-08-28T05:14:06.398Z,14.60
2022-08-28T05:16:39.306Z,14.60
2022-08-28T05:19:06.396Z,14.60
2022-08-28T05:21:33.372Z,14.60
2022-08-28T05:24:00.658Z,14.60
2022-08-28T05:26:29.871Z,14.70
2022-08-28T05:28:57.988Z,14.70
2022-08-28T05:31:26.463Z,14.80
2022-08-28T05:33:53.996Z,14.80
2022-08-28T05:36:25.900Z,14.90
2022-08-28T05:39:00.446Z,14.90
2022-08-28T05:41:30.334Z,15.00
2022-08-28T05:44:03.097Z,15.10
2022-08-28T05:46:30.549Z,15.20
2022-08-28T05:48:57.792Z,15.30
2022-08-28T05:51:26.703Z,15.50
2022-08-28T05:53:55.185Z,15.70
2022-08-28T05:56:25.718Z,16.00
2022-08-28T05:58:52.628Z,16.40
2022-08-28T06:01:28.233Z,16.90
2022-08-28T06:04:08.600Z,17.50
2022-08-28T06:06:39.290Z,17.60
2022-08-28T06:09:15.565Z,17.60
2022-08-28T06:11:44.746Z,17.80
2022-08-28T06:14:16.234Z,17.80
2022-08-28T06:16:47.077Z,17.90
2022-08-28T06:19:14.638Z,17.80
2022-08-28T06:21:43.429Z,17.60
2022-08-28T06:24:12.212Z,17.60
2022-08-28T06:26:39.545Z,17.60
2022-08-28T06:29:09.133Z,17.70
2022-08-28T06:31:36.680Z,17.60
2022-08-28T06:34:03.927Z,17.40
2022-08-28T06:36:34.435Z,17.30
2022-08-28T06:39:03.330Z,17.10
2022-08-28T06:41:32.179Z,17.40
2022-08-28T06:43:59.367Z,17.90
2022-08-28T06:46:29.145Z,18.10
2022-08-28T06:48:56.038Z,18.30
2022-08-28T06:51:24.895Z,18.40
2022-08-28T06:53:52.228Z,18.40
2022-08-28T06:56:26.805Z,18.50
2022-08-28T06:58:55.951Z,18.90
2022-08-28T07:01:27.053Z,19.10
2022-08-28T07:03:56.370Z,18.90
2022-08-28T07:06:24.130Z,18.50
2022-08-28T07:08:51.643Z,18.20
2022-08-28T07:11:28.781Z,18.50
2022-08-28T07:13:57.078Z,18.90
2022-08-28T07:16:30.326Z,19.10
2022-08-28T07:18:57.780Z,19.20
2022-08-28T07:21:24.692Z,19.10
2022-08-28T07:23:51.975Z,19.20
2022-08-28T07:26:23.482Z,19.60
2022-08-28T07:28:51.961Z,19.70
2022-08-28T07:31:22.563Z,19.60
2022-08-28T07:33:53.947Z,20.00
2022-08-28T07:36:29.332Z,20.10
2022-08-28T07:38:59.112Z,20.40
2022-08-28T07:41:31.954Z,20.20
2022-08-28T07:44:34.633Z,20.00
2022-08-28T07:47:05.736Z,19.60
2022-08-28T07:49:34.544Z,19.60
2022-08-28T07:52:02.316Z,20.20
2022-08-28T07:54:29.336Z,20.70
2022-08-28T07:56:56.272Z,20.90
2022-08-28T07:59:23.467Z,20.70
2022-08-28T08:01:52.243Z,20.70
2022-08-28T08:04:21.923Z,21.00
2022-08-28T08:06:51.437Z,21.00
2022-08-28T08:09:22.250Z,20.90
2022-08-28T08:11:49.542Z,20.60
2022-08-28T08:14:17.342Z,19.90
2022-08-28T08:16:45.880Z,19.60
2022-08-28T08:19:14.317Z,19.40
2022-08-28T08:21:46.492Z,19.50
2022-08-28T08:24:21.036Z,19.70
2022-08-28T08:26:56.527Z,20.50
2022-08-28T08:29:32.959Z,21.60
2022-08-28T08:32:06.063Z,22.10
2022-08-28T08:34:40.369Z,21.70
2022-08-28T08:37:07.894Z,21.30
2022-08-28T08:39:36.165Z,21.00
2022-08-28T08:42:05.138Z,20.80
2022-08-28T08:44:52.277Z,20.80
2022-08-28T08:47:52.506Z,21.70
2022-08-28T08:50:32.271Z,20.90
2022-08-28T08:53:33.093Z,20.70
2022-08-28T08:56:00.201Z,21.10
2022-08-28T08:58:49.011Z,21.10
2022-08-28T09:01:39.214Z,20.90
2022-08-28T09:04:40.366Z,21.10
2022-08-28T09:07:24.816Z,22.20
2022-08-28T09:09:55.504Z,22.60
2022-08-28T09:12:30.416Z,22.40
2022-08-28T09:15:30.136Z,21.70
2022-08-28T09:18:14.131Z,22.50
2022-08-28T09:20:42.270Z,24.30
2022-08-28T09:23:13.133Z,24.90
2022-08-28T09:26:21.208Z,24.80
2022-08-28T09:29:01.106Z,24.80
2022-08-28T09:31:37.590Z,22.90
2022-08-28T09:34:38.757Z,22.60
2022-08-28T09:37:08.511Z,22.40
2022-08-28T09:39:36.190Z,23.50
2022-08-28T09:42:41.669Z,25.20
2022-08-28T09:45:21.168Z,25.10
2022-08-28T09:47:52.743Z,24.60
2022-08-28T09:50:32.880Z,24.40
2022-08-28T09:53:16.815Z,23.30
2022-08-28T09:56:29.900Z,22.40
2022-08-28T09:59:05.838Z,24.00
2022-08-28T10:02:15.595Z,24.60
2022-08-28T10:05:09.625Z,25.30
2022-08-28T10:07:51.580Z,26.40
2022-08-28T10:10:45.495Z,26.90
2022-08-28T10:13:30.373Z,25.00
2022-08-28T10:16:37.985Z,25.10
2022-08-28T10:19:23.258Z,26.10
2022-08-28T10:22:14.976Z,26.40
2022-08-28T10:25:16.138Z,26.00
2022-08-28T10:28:29.215Z,25.80
2022-08-28T10:31:40.295Z,26.50
2022-08-28T10:34:51.732Z,25.90
2022-08-28T10:37:41.716Z,25.50
2022-08-28T10:40:30.940Z,24.20
2022-08-28T10:43:33.847Z,24.20
2022-08-28T10:46:32.172Z,24.90
2022-08-28T10:49:44.952Z,24.20
2022-08-28T10:52:33.612Z,24.50
2022-08-28T10:55:14.322Z,24.70
2022-08-28T10:57:57.583Z,24.80
2022-08-28T11:00:27.676Z,25.10
2022-08-28T11:03:34.802Z,25.00
2022-08-28T11:06:30.142Z,24.90
2022-08-28T11:09:00.264Z,25.30
2022-08-28T11:11:44.013Z,25.70
2022-08-28T11:14:44.584Z,24.60
2022-08-28T11:17:44.460Z,24.00
2022-08-28T11:20:25.626Z,23.50
2022-08-28T11:23:17.203Z,24.00
2022-08-28T11:25:58.991Z,24.60
2022-08-28T11:28:47.425Z,24.80
2022-08-28T11:31:36.315Z,24.90
2022-08-28T11:34:05.665Z,25.20
2022-08-28T11:36:32.632Z,25.50
2022-08-28T11:39:34.208Z,24.90
2022-08-28T11:42:28.700Z,24.70
2022-08-28T11:44:55.808Z,24.40
2022-08-28T11:47:43.502Z,24.80
2022-08-28T11:50:28.248Z,25.90
2022-08-28T11:53:33.318Z,24.80
2022-08-28T11:56:46.544Z,24.60
2022-08-28T11:59:38.898Z,24.60
2022-08-28T12:02:59.993Z,25.70
2022-08-28T12:05:41.216Z,26.30
2022-08-28T12:08:12.502Z,26.90
2022-08-28T12:10:59.743Z,26.80
2022-08-28T12:13:47.403Z,26.40
2022-08-28T12:16:15.920Z,26.50
2022-08-28T12:19:04.902Z,26.40
2022-08-28T12:21:38.739Z,26.90
2022-08-28T12:24:18.629Z,27.20
2022-08-28T12:26:51.512Z,26.70
2022-08-28T12:29:34.707Z,27.00
2022-08-28T12:32:56.114Z,27.30
2022-08-28T12:35:29.879Z,26.90
2022-08-28T12:38:03.628Z,26.80
2022-08-28T12:40:53.483Z,26.30
2022-08-28T12:43:46.255Z,26.90
2022-08-28T12:46:19.388Z,26.60
2022-08-28T12:48:59.665Z,26.70
2022-08-28T12:51:29.842Z,27.50
2022-08-28T12:54:02.777Z,27.30
2022-08-28T12:56:35.108Z,27.30
2022-08-28T12:59:27.436Z,27.70
2022-08-28T13:01:54.870Z,28.00
2022-08-28T13:04:57.624Z,28.30
2022-08-28T13:07:40.870Z,27.40
2022-08-28T13:10:39.143Z,27.10
2022-08-28T13:13:19.158Z,27.30
2022-08-28T13:16:01.628Z,27.90
2022-08-28T13:19:04.066Z,27.60
2022-08-28T13:21:35.185Z,26.90
2022-08-28T13:24:22.293Z,26.70
2022-08-28T13:27:22.263Z,26.70
2022-08-28T13:30:06.209Z,27.10
2022-08-28T13:32:37.251Z,27.20
2022-08-28T13:35:13.727Z,27.20
2022-08-28T13:37:47.951Z,27.30
2022-08-28T13:40:53.383Z,27.20
2022-08-28T13:43:11.451Z,27.30
2022-08-28T13:45:43.225Z,26.90
2022-08-28T13:48:29.526Z,26.80
2022-08-28T13:51:10.467Z,27.00
2022-08-28T13:53:38.652Z,26.70
2022-08-28T13:56:06.016Z,26.40
2022-08-28T13:58:33.016Z,26.20
2022-08-28T14:01:00.604Z,26.00
2022-08-28T14:03:38.328Z,26.30
2022-08-28T14:06:16.416Z,26.70
2022-08-28T14:08:45.329Z,26.90
2022-08-28T14:11:15.168Z,26.70
2022-08-28T14:13:47.305Z,25.80
2022-08-28T14:16:23.612Z,25.40
2022-08-28T14:18:52.696Z,25.10
2022-08-28T14:21:19.827Z,24.00
2022-08-28T14:23:47.319Z,23.40
2022-08-28T14:26:14.385Z,23.30
2022-08-28T14:28:42.486Z,23.20
2022-08-28T14:31:14.210Z,23.20
2022-08-28T14:33:42.489Z,23.30
2022-08-28T14:36:17.667Z,23.50
2022-08-28T14:38:44.970Z,23.30
2022-08-28T14:41:12.377Z,23.10
2022-08-28T14:43:39.399Z,23.00
2022-08-28T14:46:11.424Z,22.80
2022-08-28T14:48:38.782Z,22.90
2022-08-28T14:51:06.154Z,22.90
2022-08-28T14:53:35.269Z,22.90
2022-08-28T14:56:02.962Z,22.80
2022-08-28T14:58:29.962Z,22.90
2022-08-28T15:00:59.342Z,22.80
2022-08-28T15:03:27.142Z,22.70
2022-08-28T15:06:07.237Z,22.60
2022-08-28T15:08:35.267Z,22.70
2022-08-28T15:11:18.470Z,22.70
2022-08-28T15:13:47.769Z,22.40
2022-08-28T15:16:24.665Z,22.40
2022-08-28T15:18:55.504Z,22.30
2022-08-28T15:21:36.872Z,22.30
2022-08-28T15:24:05.382Z,22.40
2022-08-28T15:26:33.009Z,22.50
2022-08-28T15:29:03.645Z,22.50
2022-08-28T15:31:33.569Z,22.50
2022-08-28T15:34:13.831Z,22.50
2022-08-28T15:36:42.275Z,22.50
2022-08-28T15:39:29.213Z,22.50
2022-08-28T15:41:57.591Z,22.40
2022-08-28T15:44:24.640Z,22.30
2022-08-28T15:46:54.309Z,22.30
2022-08-28T15:49:23.722Z,22.20
2022-08-28T15:51:52.377Z,22.10
2022-08-28T15:54:20.660Z,22.10
2022-08-28T15:56:50.739Z,22.10
2022-08-28T15:59:21.294Z,22.20
2022-08-28T16:01:52.007Z,22.20
2022-08-28T16:04:19.210Z,22.20
2022-08-28T16:06:46.921Z,22.20
2022-08-28T16:09:14.186Z,22.20
2022-08-28T16:11:43.942Z,22.20
2022-08-28T16:14:12.121Z,22.20
2022-08-28T16:16:40.120Z,22.20
2022-08-28T16:19:14.175Z,22.10
2022-08-28T16:21:42.666Z,22.00
2022-08-28T16:24:10.951Z,21.90
2022-08-28T16:26:37.910Z,21.80
2022-08-28T16:29:04.887Z,21.80
2022-08-28T16:31:34.251Z,21.70
2022-08-28T16:34:03.255Z,21.70
2022-08-28T16:36:31.739Z,21.80
2022-08-28T16:39:03.700Z,21.80
2022-08-28T16:41:32.107Z,21.60
2022-08-28T16:44:00.333Z,21.60
2022-08-28T16:46:27.904Z,21.50
2022-08-28T16:48:55.012Z,21.50
2022-08-28T16:51:22.863Z,21.50
2022-08-28T16:53:49.778Z,21.50
2022-08-28T16:56:18.190Z,21.50
2022-08-28T16:58:45.949Z,21.40
2022-08-28T17:01:14.037Z,21.40
2022-08-28T17:03:42.220Z,21.30
2022-08-28T17:06:14.000Z,21.20
2022-08-28T17:08:41.859Z,21.20
2022-08-28T17:11:09.155Z,21.10
2022-08-28T17:13:37.308Z,21.00
2022-08-28T17:16:05.448Z,21.00
2022-08-28T17:18:33.332Z,21.00
2022-08-28T17:21:19.162Z,20.90
2022-08-28T17:23:47.055Z,20.90
2022-08-28T17:26:15.885Z,20.90
2022-08-28T17:28:44.130Z,20.80
2022-08-28T17:31:12.367Z,20.70
2022-08-28T17:33:41.918Z,20.60
2022-08-28T17:36:21.239Z,20.60
2022-08-28T17:38:59.011Z,20.50
2022-08-28T17:41:27.070Z,20.50
2022-08-28T17:43:53.977Z,20.40
2022-08-28T17:46:20.942Z,20.30
2022-08-28T17:48:55.628Z,20.20
2022-08-28T17:51:42.498Z,20.20
2022-08-28T17:54:18.712Z,20.10
2022-08-28T17:56:46.614Z,20.10
2022-08-28T17:59:14.357Z,19.90
2022-08-28T18:01:42.790Z,19.90
2022-08-28T18:04:10.525Z,19.80
2022-08-28T18:06:37.963Z,19.80
2022-08-28T18:09:06.966Z,19.70
2022-08-28T18:11:34.258Z,19.60
2022-08-28T18:14:01.930Z,19.50
2022-08-28T18:16:32.937Z,19.40
2022-08-28T18:19:01.005Z,19.40
2022-08-28T18:21:29.953Z,19.30
2022-08-28T18:23:57.706Z,19.20
2022-08-28T18:26:24.829Z,19.20
2022-08-28T18:28:52.706Z,19.10
2022-08-28T18:31:20.097Z,19.00
2022-08-28T18:33:47.831Z,19.00
2022-08-28T18:36:15.272Z,18.80
2022-08-28T18:38:43.786Z,18.80
2022-08-28T18:41:12.185Z,18.70
2022-08-28T18:43:39.634Z,18.60
2022-08-28T18:46:14.184Z,18.60
2022-08-28T18:48:42.964Z,18.50
2022-08-28T18:51:12.818Z,18.50
2022-08-28T18:53:43.193Z,18.40
2022-08-28T18:56:12.295Z,18.30
2022-08-28T18:58:40.054Z,18.20
2022-08-28T19:01:08.319Z,18.20
2022-08-28T19:03:35.528Z,18.10
2022-08-28T19:06:03.038Z,18.10
2022-08-28T19:08:30.714Z,18.10
2022-08-28T19:10:57.845Z,18.10
2022-08-28T19:13:24.925Z,18.00
2022-08-28T19:15:54.254Z,18.00
2022-08-28T19:18:22.145Z,17.90
2022-08-28T19:20:49.059Z,17.80
2022-08-28T19:23:17.897Z,17.80
2022-08-28T19:25:45.167Z,17.80
2022-08-28T19:28:12.956Z,17.70
2022-08-28T19:30:40.087Z,17.70
2022-08-28T19:33:07.185Z,17.60
2022-08-28T19:35:34.240Z,17.50
2022-08-28T19:38:02.192Z,17.50
2022-08-28T19:40:29.375Z,17.40
2022-08-28T19:42:57.153Z,17.30
2022-08-28T19:45:25.044Z,17.20
2022-08-28T19:47:52.855Z,17.10
2022-08-28T19:50:20.363Z,17.00
2022-08-28T19:52:47.843Z,17.00
2022-08-28T19:55:21.965Z,17.00
2022-08-28T19:57:49.616Z,17.00
2022-08-28T20:00:20.986Z,16.90
2022-08-28T20:02:49.405Z,16.80
2022-08-28T20:05:16.634Z,16.70
2022-08-28T20:07:43.953Z,16.70
2022-08-28T20:10:14.158Z,16.70
2022-08-28T20:12:48.352Z,16.60
2022-08-28T20:15:17.892Z,16.50
2022-08-28T20:17:49.958Z,16.40
2022-08-28T20:20:24.557Z,16.40
2022-08-28T20:22:54.236Z,16.30
2022-08-28T20:25:21.887Z,16.30
2022-08-28T20:27:48.859Z,16.30
2022-08-28T20:30:16.582Z,16.20
2022-08-28T20:32:43.624Z,16.20
2022-08-28T20:35:12.863Z,16.10
2022-08-28T20:37:45.182Z,16.00
2022-08-28T20:40:14.645Z,15.90
2022-08-28T20:42:41.843Z,15.90
2022-08-28T20:45:09.642Z,15.90
2022-08-28T20:47:36.760Z,15.80
2022-08-28T20:50:04.770Z,15.80
2022-08-28T20:52:34.031Z,15.70
2022-08-28T20:55:01.097Z,15.70
2022-08-28T20:57:29.093Z,15.60
2022-08-28T20:59:56.053Z,15.60
2022-08-28T21:02:27.861Z,15.50
2022-08-28T21:04:55.740Z,15.40
2022-08-28T21:07:24.446Z,15.40
2022-08-28T21:10:04.849Z,15.30
2022-08-28T21:12:35.847Z,15.20
2022-08-28T21:15:03.680Z,15.20
2022-08-28T21:17:31.045Z,15.20
2022-08-28T21:20:00.497Z,15.10
2022-08-28T21:22:29.143Z,15.00
2022-08-28T21:24:56.159Z,15.00
2022-08-28T21:27:23.184Z,14.90
2022-08-28T21:29:50.424Z,14.80
2022-08-28T21:32:17.535Z,14.80
2022-08-28T21:34:44.824Z,14.80
2022-08-28T21:37:11.862Z,14.80
2022-08-28T21:39:38.780Z,14.80
2022-08-28T21:42:06.738Z,14.60
2022-08-28T21:44:33.769Z,14.60
2022-08-28T21:47:00.719Z,14.60
2022-08-28T21:49:27.879Z,14.60
2022-08-28T21:51:54.867Z,14.60
2022-08-28T21:54:23.142Z,14.60
2022-08-28T21:56:50.620Z,14.60
2022-08-28T21:59:25.858Z,14.60
2022-08-28T22:01:58.416Z,14.60
2022-08-28T22:04:25.398Z,14.50
2022-08-28T22:06:52.676Z,14.40
2022-08-28T22:09:20.245Z,14.40
2022-08-28T22:11:47.437Z,14.30
2022-08-28T22:14:14.638Z,14.30
2022-08-28T22:16:42.929Z,14.20
2022-08-28T22:19:09.903Z,14.10
2022-08-28T22:21:55.212Z,14.10
2022-08-28T22:24:22.189Z,14.10
2022-08-28T22:26:49.223Z,14.10
2022-08-28T22:29:21.620Z,14.00
2022-08-28T22:31:48.558Z,14.00
2022-08-28T22:34:15.467Z,14.00
2022-08-28T22:36:42.645Z,13.90
2022-08-28T22:39:09.527Z,13.80
2022-08-28T22:41:37.766Z,13.70
2022-08-28T22:44:04.890Z,13.80
2022-08-28T22:46:31.798Z,13.70
2022-08-28T22:48:59.058Z,13.60
2022-08-28T22:51:26.062Z,13.50
2022-08-28T22:53:53.450Z,13.40
2022-08-28T22:56:20.755Z,13.30
2022-08-28T22:58:47.688Z,13.20
2022-08-28T23:01:18.093Z,13.00
2022-08-28T23:03:46.722Z,12.90
2022-08-28T23:06:14.172Z,12.80
2022-08-28T23:08:41.648Z,12.80
2022-08-28T23:11:10.046Z,12.80
2022-08-28T23:13:37.736Z,12.70
2022-08-28T23:16:05.304Z,12.60
2022-08-28T23:18:46.245Z,12.50
2022-08-28T23:21:20.706Z,12.40
2022-08-28T23:23:47.651Z,12.30
2022-08-28T23:26:15.971Z,12.20
2022-08-28T23:28:43.194Z,12.20
2022-08-28T23:31:10.663Z,12.20
2022-08-28T23:33:37.742Z,12.20
2022-08-28T23:36:05.568Z,12.10
2022-08-28T23:38:35.212Z,12.10
2022-08-28T23:41:02.641Z,12.10
2022-08-28T23:43:30.091Z,12.10
2022-08-28T23:45:57.090Z,12.20
2022-08-28T23:48:24.986Z,12.20
2022-08-28T23:50:52.847Z,12.20
2022-08-28T23:53:20.336Z,12.20
2022-08-28T23:55:48.566Z,12.10
2022-08-28T23:58:16.799Z,12.00
